Time;durP1;ratioP1;P1;durP2;ratioP2;P2;SDS_P1;SDS_P2;PMS_P1;PMS_P2;Temp;Humidity;BMP_temperature;BMP_pressure;BME280_temperature;BME280_humidity;BME280_pressure;Samples;Min_cycle;Max_cycle;Signal;HPM_P1;HPM_P2
2022/03/24 00:02:30;;;;;;;1.60;1.52;;;5.10;99.90;;;;;;5167180;28;20046;-74
2022/03/24 00:05:06;;;;;;;1.02;1.02;;;5.00;99.90;;;;;;5174021;28;20055;-74
2022/03/24 00:07:39;;;;;;;0.80;0.80;;;4.90;99.90;;;;;;5190328;28;20039;-75
2022/03/24 00:10:13;;;;;;;0.80;0.80;;;4.80;99.90;;;;;;5166797;28;20048;-75
2022/03/24 00:12:47;;;;;;;2.67;1.48;;;4.60;99.90;;;;;;5220410;28;20039;-73
2022/03/24 00:15:24;;;;;;;0.90;0.90;;;4.60;99.90;;;;;;5194630;28;20041;-74
2022/03/24 00:17:55;;;;;;;1.25;1.25;;;4.70;99.90;;;;;;5201627;28;20035;-74
2022/03/24 00:20:28;;;;;;;1.25;1.25;;;4.70;99.90;;;;;;5200987;28;20569;-73
2022/03/24 00:23:01;;;;;;;1.38;1.38;;;4.70;99.90;;;;;;5219637;28;20024;-73
2022/03/24 00:25:35;;;;;;;0.60;0.60;;;4.60;99.90;;;;;;5178641;28;20307;-74
2022/03/24 00:28:07;;;;;;;1.00;1.00;;;4.60;99.90;;;;;;5171491;28;20033;-75
2022/03/24 00:30:44;;;;;;;0.80;0.80;;;4.50;99.90;;;;;;5217286;28;20025;-74
2022/03/24 00:33:15;;;;;;;1.02;1.02;;;4.50;99.90;;;;;;5173763;28;20079;-74
2022/03/24 00:35:47;;;;;;;1.88;1.77;;;4.50;99.90;;;;;;5185709;28;20037;-74
2022/03/24 00:38:21;;;;;;;0.80;0.80;;;4.80;99.90;;;;;;5173085;28;20346;-74
2022/03/24 00:40:58;;;;;;;1.15;1.15;;;4.80;99.90;;;;;;5187382;28;20179;-75
2022/03/24 00:43:34;;;;;;;1.00;1.00;;;4.90;99.90;;;;;;5184863;28;20035;-75
2022/03/24 00:46:11;;;;;;;1.20;1.20;;;4.80;99.90;;;;;;5184351;28;20039;-74
2022/03/24 00:48:48;;;;;;;0.77;0.77;;;4.70;99.90;;;;;;5183957;28;20044;-75
2022/03/24 00:51:23;;;;;;;0.88;0.88;;;4.70;99.90;;;;;;5199095;28;20049;-76
2022/03/24 00:53:54;;;;;;;;;;;4.60;99.90;;;;;;5189543;28;20147;-75
2022/03/24 00:56:26;;;;;;;0.80;0.80;;;4.60;99.90;;;;;;5196685;28;19908;-75
2022/03/24 00:58:57;;;;;;;1.25;1.25;;;4.60;99.90;;;;;;5195104;28;20038;-75
2022/03/24 01:01:29;;;;;;;0.80;0.80;;;4.50;99.90;;;;;;5195157;28;20045;-76
2022/03/24 01:04:01;;;;;;;0.82;0.82;;;4.40;99.90;;;;;;5171299;28;20040;-76
2022/03/24 01:06:39;;;;;;;0.52;0.52;;;4.40;99.90;;;;;;5189095;28;20045;-76
2022/03/24 01:09:12;;;;;;;1.10;1.10;;;4.30;99.90;;;;;;5207719;28;20029;-75
2022/03/24 01:11:47;;;;;;;0.68;0.68;;;4.30;99.90;;;;;;5168723;28;20359;-74
2022/03/24 01:14:22;;;;;;;;;;;4.20;99.90;;;;;;5166832;28;20041;-74
2022/03/24 01:16:57;;;;;;;0.93;0.93;;;4.20;99.90;;;;;;5181112;28;19917;-73
2022/03/24 01:19:38;;;;;;;0.70;0.70;;;4.30;99.90;;;;;;5213420;28;20030;-75
2022/03/24 01:22:12;;;;;;;0.80;0.80;;;4.40;99.90;;;;;;5191490;28;20230;-75
2022/03/24 01:24:48;;;;;;;1.13;1.08;;;4.40;99.90;;;;;;5205935;28;20196;-75
2022/03/24 01:27:20;;;;;;;1.13;1.13;;;4.30;99.90;;;;;;5194599;28;20020;-75
2022/03/24 01:30:02;;;;;;;0.52;0.52;;;4.20;99.90;;;;;;5201551;28;20055;-75
2022/03/24 01:32:38;;;;;;;1.25;1.25;;;4.20;99.90;;;;;;5192049;28;20024;-75
2022/03/24 01:35:15;;;;;;;0.98;0.98;;;4.00;99.90;;;;;;5208698;28;20030;-75
2022/03/24 01:37:46;;;;;;;1.00;1.00;;;4.10;99.90;;;;;;5199938;28;20243;-74
2022/03/24 01:40:26;;;;;;;1.95;1.85;;;4.10;99.90;;;;;;5207572;28;20063;-76
2022/03/24 01:43:00;;;;;;;1.63;1.52;;;4.00;99.90;;;;;;5190272;28;20037;-74
2022/03/24 01:45:37;;;;;;;0.88;0.88;;;4.00;99.90;;;;;;5181890;28;20467;-75
2022/03/24 01:48:15;;;;;;;1.00;1.00;;;4.00;99.90;;;;;;5203596;28;20512;-75
2022/03/24 01:50:46;;;;;;;0.73;0.73;;;4.00;99.90;;;;;;5182317;28;20039;-74
2022/03/24 01:53:19;;;;;;;1.08;1.08;;;4.00;99.90;;;;;;5218689;28;20071;-75
2022/03/24 01:55:54;;;;;;;1.73;1.63;;;4.10;99.90;;;;;;5186744;28;20044;-73
2022/03/24 01:58:27;;;;;;;1.52;1.52;;;4.00;99.90;;;;;;5203082;28;20242;-74
2022/03/24 02:01:29;;;;;;;1.65;1.65;;;4.00;99.90;;;;;;5203180;28;20025;-75
2022/03/24 02:04:05;;;;;;;0.98;0.95;;;4.00;99.90;;;;;;5199037;28;20029;-76
2022/03/24 02:06:37;;;;;;;5.55;2.08;;;4.00;99.90;;;;;;5187968;28;20051;-74
2022/03/24 02:09:13;;;;;;;0.65;0.65;;;3.90;99.90;;;;;;5182259;28;20037;-74
2022/03/24 02:11:45;;;;;;;1.90;1.80;;;3.90;99.90;;;;;;5216238;28;20197;-74
2022/03/24 02:14:18;;;;;;;1.05;1.05;;;3.80;99.90;;;;;;5203101;28;20047;-77
2022/03/24 02:16:50;;;;;;;1.25;1.25;;;3.80;99.90;;;;;;5192499;28;20039;-73
2022/03/24 02:19:31;;;;;;;0.75;0.75;;;3.70;99.90;;;;;;5202915;28;20506;-75
2022/03/24 02:22:16;;;;;;;1.35;1.30;;;3.70;99.90;;;;;;5201316;28;20338;-74
2022/03/24 02:24:47;;;;;;;0.90;0.90;;;3.70;99.90;;;;;;5213216;28;20058;-73
2022/03/24 02:27:24;;;;;;;0.60;0.60;;;4.00;99.90;;;;;;5198968;28;20161;-75
2022/03/24 02:30:02;;;;;;;0.75;0.75;;;4.10;99.90;;;;;;5198451;28;20040;-75
2022/03/24 02:32:34;;;;;;;0.80;0.80;;;4.20;99.90;;;;;;5200500;28;20365;-76
2022/03/24 02:35:10;;;;;;;1.67;1.60;;;4.00;99.90;;;;;;5199590;28;20037;-74
2022/03/24 02:37:44;;;;;;;0.77;0.77;;;3.90;99.90;;;;;;5215244;28;20033;-74
2022/03/24 02:40:15;;;;;;;1.40;1.35;;;3.90;99.90;;;;;;5209750;28;20388;-76
2022/03/24 02:42:47;;;;;;;0.80;0.80;;;4.00;99.90;;;;;;5197969;28;20033;-75
2022/03/24 02:45:28;;;;;;;0.70;0.70;;;3.90;99.90;;;;;;5225557;28;20346;-75
2022/03/24 02:48:09;;;;;;;1.55;1.55;;;3.80;99.90;;;;;;5184125;28;20049;-76
2022/03/24 02:50:40;;;;;;;0.93;0.93;;;3.60;99.90;;;;;;5209996;28;20446;-75
2022/03/24 02:53:14;;;;;;;0.75;0.75;;;3.60;99.90;;;;;;5209661;28;20040;-75
2022/03/24 02:55:46;;;;;;;0.80;0.80;;;3.60;99.90;;;;;;5198652;28;20033;-75
2022/03/24 02:58:20;;;;;;;1.25;1.25;;;3.60;99.90;;;;;;5211613;28;20045;-74
2022/03/24 03:00:54;;;;;;;1.95;1.85;;;3.60;99.90;;;;;;5205883;28;20040;-74
2022/03/24 03:03:29;;;;;;;0.90;0.90;;;3.70;99.90;;;;;;5203842;28;20041;-75
2022/03/24 03:06:01;;;;;;;1.20;1.20;;;3.70;99.90;;;;;;5179564;28;20049;-76
2022/03/24 03:08:36;;;;;;;1.00;1.00;;;3.60;99.90;;;;;;5203256;28;20415;-75
2022/03/24 03:11:07;;;;;;;0.85;0.85;;;3.70;99.90;;;;;;5210552;28;20035;-75
2022/03/24 03:13:39;;;;;;;0.90;0.90;;;3.70;99.90;;;;;;5206846;28;20037;-75
2022/03/24 03:16:18;;;;;;;0.77;0.77;;;3.70;99.90;;;;;;5207964;28;20227;-75
2022/03/24 03:18:55;;;;;;;1.02;1.02;;;3.60;99.90;;;;;;5183649;28;20238;-74
2022/03/24 03:21:28;;;;;;;1.20;1.20;;;3.50;99.90;;;;;;5186001;28;20033;-74
2022/03/24 03:24:02;;;;;;;0.70;0.70;;;3.40;99.90;;;;;;5197980;28;20049;-74
2022/03/24 03:26:35;;;;;;;1.58;1.48;;;3.40;99.90;;;;;;5184573;28;20085;-74
2022/03/24 03:29:08;;;;;;;0.95;0.95;;;3.40;99.90;;;;;;5207288;28;20392;-75
2022/03/24 03:31:41;;;;;;;0.85;0.85;;;3.40;99.90;;;;;;5202512;28;20040;-75
2022/03/24 03:34:16;;;;;;;1.15;1.15;;;3.50;99.90;;;;;;5189525;28;20488;-74
2022/03/24 03:36:50;;;;;;;;;;;3.50;99.90;;;;;;5207873;28;20059;-75
2022/03/24 03:39:24;;;;;;;1.00;1.00;;;3.60;99.90;;;;;;5187569;28;19917;-75
2022/03/24 03:41:59;;;;;;;1.88;1.77;;;3.70;99.90;;;;;;5195354;28;20127;-75
2022/03/24 03:44:34;;;;;;;1.17;1.17;;;3.70;99.90;;;;;;5201105;28;20029;-74
2022/03/24 03:47:09;;;;;;;1.20;1.20;;;4.20;99.90;;;;;;5209534;28;20032;-75
2022/03/24 03:49:44;;;;;;;;;;;4.30;99.90;;;;;;5214448;28;20010;-76
2022/03/24 03:52:15;;;;;;;;;;;4.40;99.90;;;;;;5201815;28;19901;-73
2022/03/24 03:54:50;;;;;;;0.80;0.80;;;4.40;99.90;;;;;;5201200;28;19919;-74
2022/03/24 03:57:27;;;;;;;1.88;1.70;;;4.30;99.90;;;;;;5205023;28;20032;-74
2022/03/24 04:00:52;;;;;;;0.90;0.90;;;4.20;99.90;;;;;;5183686;28;20033;-75
2022/03/24 04:02:57;;;;;;;1.43;1.33;;;3.90;99.90;;;;;;5200741;28;20319;-74
2022/03/24 04:05:36;;;;;;;2.45;2.35;;;3.90;99.90;;;;;;5175558;28;20289;-75
2022/03/24 04:08:10;;;;;;;0.70;0.70;;;3.80;99.90;;;;;;5198808;28;20017;-74
2022/03/24 04:10:50;;;;;;;0.60;0.60;;;3.80;99.90;;;;;;5218869;28;20048;-73
2022/03/24 04:13:24;;;;;;;2.22;2.08;;;3.90;99.90;;;;;;5202196;28;20038;-75
2022/03/24 04:15:58;;;;;;;1.08;1.08;;;4.00;99.90;;;;;;5198193;28;20407;-74
2022/03/24 04:18:32;;;;;;;1.52;1.52;;;3.80;99.90;;;;;;5189691;28;20547;-73
2022/03/24 04:21:12;;;;;;;0.80;0.80;;;3.70;99.90;;;;;;5202447;28;20036;-75
2022/03/24 04:23:47;;;;;;;1.20;1.20;;;3.60;99.90;;;;;;5211644;28;20047;-76
2022/03/24 04:26:22;;;;;;;;;;;3.70;99.90;;;;;;5166174;28;20017;-73
2022/03/24 04:28:55;;;;;;;1.00;1.00;;;3.70;99.90;;;;;;5208756;28;19923;-74
2022/03/24 04:31:34;;;;;;;0.93;0.93;;;3.80;99.90;;;;;;5188816;28;20218;-74
2022/03/24 04:34:08;;;;;;;0.98;0.98;;;3.80;99.90;;;;;;5199686;28;20053;-75
2022/03/24 04:36:43;;;;;;;0.90;0.90;;;3.80;99.90;;;;;;5200421;28;20032;-74
2022/03/24 04:39:15;;;;;;;1.15;1.15;;;3.60;99.90;;;;;;5198362;28;20033;-74
2022/03/24 04:41:48;;;;;;;1.00;1.00;;;3.60;99.90;;;;;;5205097;28;20050;-74
2022/03/24 04:44:21;;;;;;;0.70;0.70;;;3.60;99.90;;;;;;5210181;28;20348;-74
2022/03/24 04:46:56;;;;;;;1.02;1.02;;;3.50;99.90;;;;;;5193894;28;20029;-74
2022/03/24 04:49:30;;;;;;;0.90;0.90;;;3.50;99.90;;;;;;5200384;28;20072;-74
2022/03/24 04:52:03;;;;;;;0.90;0.90;;;3.60;99.90;;;;;;5193795;28;20051;-75
2022/03/24 04:54:39;;;;;;;1.13;1.13;;;3.60;99.90;;;;;;5208294;28;20025;-74
2022/03/24 04:57:13;;;;;;;1.13;1.13;;;3.50;99.90;;;;;;5206622;28;20214;-75
2022/03/24 04:59:51;;;;;;;1.00;1.00;;;3.70;99.90;;;;;;5211251;28;20267;-75
2022/03/24 05:02:24;;;;;;;0.70;0.70;;;3.60;99.90;;;;;;5171734;28;20041;-75
2022/03/24 05:04:56;;;;;;;0.98;0.98;;;3.90;99.90;;;;;;5184470;28;20640;-74
2022/03/24 05:07:33;;;;;;;0.70;0.70;;;4.00;99.90;;;;;;5184462;28;20047;-74
2022/03/24 05:10:08;;;;;;;1.00;1.00;;;4.20;99.90;;;;;;5214348;28;20025;-74
2022/03/24 05:12:40;;;;;;;0.70;0.70;;;4.30;99.90;;;;;;5202921;28;20039;-75
2022/03/24 05:15:13;;;;;;;1.02;1.02;;;4.40;99.90;;;;;;5191977;28;20023;-76
2022/03/24 05:17:45;;;;;;;1.17;1.17;;;4.40;99.90;;;;;;5192396;28;20044;-74
2022/03/24 05:20:17;;;;;;;0.75;0.75;;;4.70;99.90;;;;;;5187593;28;20052;-75
2022/03/24 05:22:52;;;;;;;1.02;1.02;;;4.90;99.90;;;;;;5201111;28;20013;-76
2022/03/24 05:25:26;;;;;;;;;;;5.20;99.90;;;;;;5190233;28;20031;-74
2022/03/24 05:28:00;;;;;;;0.70;0.70;;;5.40;99.90;;;;;;5212747;28;20130;-75
2022/03/24 05:30:37;;;;;;;1.52;1.52;;;5.30;99.90;;;;;;5185324;28;20037;-75
2022/03/24 05:33:16;;;;;;;2.65;2.45;;;5.30;99.90;;;;;;5184564;28;20033;-75
2022/03/24 05:35:55;;;;;;;1.05;1.05;;;5.60;99.90;;;;;;5217587;28;20025;-76
2022/03/24 05:38:28;;;;;;;1.50;1.45;;;5.80;99.90;;;;;;5198735;28;20032;-76
2022/03/24 05:41:08;;;;;;;1.35;1.25;;;5.90;99.90;;;;;;5181978;28;20182;-75
2022/03/24 05:44:02;;;;;;;1.15;1.15;;;6.10;99.90;;;;;;5214674;28;20039;-75
2022/03/24 05:46:52;;;;;;;1.23;1.15;;;6.60;99.90;;;;;;5215449;28;20093;-75
2022/03/24 05:49:28;;;;;;;0.85;0.85;;;7.00;99.90;;;;;;5218891;28;20025;-75
2022/03/24 05:52:00;;;;;;;1.15;1.15;;;7.30;99.90;;;;;;5197283;28;20056;-75
2022/03/24 05:54:42;;;;;;;1.20;1.20;;;7.40;99.90;;;;;;5203351;28;20025;-72
2022/03/24 05:57:13;;;;;;;1.70;1.60;;;7.60;99.90;;;;;;5188105;28;20548;-75
2022/03/24 05:59:48;;;;;;;1.83;1.73;;;7.80;99.90;;;;;;5194565;28;20037;-74
2022/03/24 06:02:24;;;;;;;1.63;1.58;;;7.80;99.90;;;;;;5187967;28;20247;-73
2022/03/24 06:04:58;;;;;;;1.10;1.10;;;7.80;99.90;;;;;;5183398;28;20040;-74
2022/03/24 06:07:39;;;;;;;1.35;1.30;;;7.90;99.90;;;;;;5180292;28;20350;-73
2022/03/24 06:10:13;;;;;;;2.30;2.20;;;8.00;99.90;;;;;;5193715;28;20594;-75
2022/03/24 06:12:50;;;;;;;0.80;0.80;;;8.00;99.90;;;;;;5203164;28;20043;-75
2022/03/24 06:15:25;;;;;;;1.55;1.52;;;8.30;99.90;;;;;;5202965;28;20519;-73
2022/03/24 06:18:02;;;;;;;1.83;1.73;;;8.20;99.90;;;;;;5223822;28;20035;-75
2022/03/24 06:20:36;;;;;;;0.80;0.80;;;8.40;99.90;;;;;;5205939;28;20514;-74
2022/03/24 06:23:08;;;;;;;1.13;1.13;;;8.50;99.90;;;;;;5185583;28;20017;-77
2022/03/24 06:25:42;;;;;;;0.98;0.98;;;8.80;99.90;;;;;;5204414;28;20044;-75
2022/03/24 06:28:19;;;;;;;0.93;0.93;;;9.10;99.90;;;;;;5192995;28;21345;-75
2022/03/24 06:30:52;;;;;;;1.00;1.00;;;9.20;99.90;;;;;;5177972;28;20484;-77
2022/03/24 06:33:23;;;;;;;1.13;0.98;;;9.20;99.90;;;;;;5183225;28;20036;-75
2022/03/24 06:35:58;;;;;;;0.70;0.70;;;9.50;99.90;;;;;;5204042;28;20052;-76
2022/03/24 06:38:33;;;;;;;1.65;1.55;;;9.60;99.90;;;;;;5206163;28;20047;-77
2022/03/24 06:41:10;;;;;;;1.52;1.42;;;9.90;99.90;;;;;;5202497;28;20044;-75
2022/03/24 06:43:48;;;;;;;1.33;1.33;;;10.20;99.90;;;;;;5179284;28;20086;-74
2022/03/24 06:46:22;;;;;;;0.95;0.95;;;10.40;99.90;;;;;;5206399;28;20505;-76
2022/03/24 06:49:00;;;;;;;;;;;10.50;99.90;;;;;;5187034;28;20034;-75
2022/03/24 06:51:36;;;;;;;1.10;1.10;;;10.70;99.90;;;;;;5198897;28;19909;-76
2022/03/24 06:54:08;;;;;;;1.20;1.20;;;10.70;99.90;;;;;;5187597;28;20234;-76
2022/03/24 06:56:49;;;;;;;0.93;0.93;;;10.90;99.90;;;;;;5199292;28;20009;-75
2022/03/24 06:59:20;;;;;;;1.25;1.25;;;11.10;99.90;;;;;;5203372;28;20032;-77
2022/03/24 07:01:55;;;;;;;0.65;0.65;;;11.60;99.90;;;;;;5188149;28;20029;-76
2022/03/24 07:04:27;;;;;;;1.83;1.73;;;11.70;99.90;;;;;;5194606;28;20230;-75
2022/03/24 07:06:59;;;;;;;1.27;1.27;;;12.00;99.90;;;;;;5198278;28;20045;-75
2022/03/24 07:09:35;;;;;;;0.90;0.90;;;12.30;99.90;;;;;;5188589;28;20025;-75
2022/03/24 07:12:11;;;;;;;1.00;1.00;;;12.60;99.90;;;;;;5186169;28;20045;-76
2022/03/24 07:14:42;;;;;;;1.65;1.55;;;12.70;99.90;;;;;;5194874;28;20028;-76
2022/03/24 07:17:19;;;;;;;0.95;0.95;;;12.90;99.90;;;;;;5204025;28;20029;-75
2022/03/24 07:19:53;;;;;;;1.20;1.20;;;12.90;99.90;;;;;;5193789;28;20373;-77
2022/03/24 07:22:31;;;;;;;1.75;1.67;;;13.20;99.90;;;;;;5200878;28;20033;-75
2022/03/24 07:25:09;;;;;;;1.67;1.63;;;13.40;99.90;;;;;;5194067;28;20379;-74
2022/03/24 07:27:46;;;;;;;1.65;1.55;;;13.40;99.90;;;;;;5200102;28;20476;-75
2022/03/24 07:30:18;;;;;;;1.27;1.27;;;13.60;99.90;;;;;;5217043;28;20043;-75
2022/03/24 07:32:52;;;;;;;1.63;1.60;;;13.80;99.90;;;;;;5179404;28;20167;-76
2022/03/24 07:35:25;;;;;;;3.95;1.98;;;13.60;99.90;;;;;;5180329;28;20041;-75
2022/03/24 07:37:59;;;;;;;0.88;0.88;;;13.20;99.90;;;;;;5169415;28;20040;-76
2022/03/24 07:40:31;;;;;;;1.33;1.33;;;13.80;99.90;;;;;;5182219;28;20483;-75
2022/03/24 07:43:05;;;;;;;0.93;0.93;;;13.80;99.90;;;;;;5210133;28;20280;-75
2022/03/24 07:45:38;;;;;;;1.73;1.63;;;14.20;99.90;;;;;;5199976;28;20032;-75
2022/03/24 07:48:20;;;;;;;1.02;1.02;;;14.60;99.90;;;;;;5188415;28;20496;-75
2022/03/24 07:50:57;;;;;;;0.57;0.57;;;15.00;99.90;;;;;;5176335;28;20032;-77
2022/03/24 07:53:48;;;;;;;0.80;0.80;;;15.30;99.90;;;;;;5200502;28;20036;-76
2022/03/24 07:56:26;;;;;;;0.52;0.52;;;15.30;99.90;;;;;;5195936;28;20033;-77
2022/03/24 07:58:58;;;;;;;1.02;1.02;;;15.40;98.90;;;;;;5183173;28;20025;-77
2022/03/24 08:01:33;;;;;;;1.85;1.20;;;15.70;99.30;;;;;;5200406;28;20164;-75
2022/03/24 08:04:07;;;;;;;0.70;0.70;;;15.80;99.90;;;;;;5191805;28;20029;-77
2022/03/24 08:06:42;;;;;;;0.70;0.70;;;15.50;98.20;;;;;;5202452;28;20262;-75
2022/03/24 08:09:18;;;;;;;0.38;0.38;;;15.40;98.70;;;;;;5165673;28;20044;-77
2022/03/24 08:11:51;;;;;;;0.65;0.65;;;15.20;98.40;;;;;;5204401;28;20037;-77
2022/03/24 08:14:23;;;;;;;1.30;1.17;;;15.20;98.20;;;;;;5228180;28;20548;-75
2022/03/24 08:16:59;;;;;;;1.10;1.10;;;15.20;98.00;;;;;;5188709;28;20048;-75
2022/03/24 08:19:31;;;;;;;1.35;1.25;;;15.20;98.20;;;;;;5203002;28;20032;-75
2022/03/24 08:22:03;;;;;;;0.82;0.82;;;15.40;98.20;;;;;;5195375;28;20029;-75
2022/03/24 08:24:34;;;;;;;0.43;0.43;;;15.60;97.30;;;;;;5199458;28;20352;-76
2022/03/24 08:27:06;;;;;;;0.85;0.85;;;15.40;97.40;;;;;;5215660;28;20403;-76
2022/03/24 08:29:40;;;;;;;0.85;0.85;;;15.40;97.50;;;;;;5201789;28;20036;-75
2022/03/24 08:32:16;;;;;;;1.87;1.77;;;15.50;96.80;;;;;;5177495;28;20056;-75
2022/03/24 08:34:50;;;;;;;0.90;0.90;;;15.50;97.10;;;;;;5178747;28;20041;-75
2022/03/24 08:37:24;;;;;;;1.17;1.17;;;15.70;97.50;;;;;;5212509;28;20338;-76
2022/03/24 08:39:58;;;;;;;1.65;1.55;;;15.70;96.30;;;;;;5200045;28;20345;-75
2022/03/24 08:42:30;;;;;;;1.27;1.17;;;15.80;96.60;;;;;;5178912;28;20033;-76
2022/03/24 08:45:04;;;;;;;0.60;0.60;;;15.90;95.80;;;;;;5189990;28;20040;-76
2022/03/24 08:47:40;;;;;;;1.38;1.30;;;15.90;95.80;;;;;;5194560;28;20016;-75
2022/03/24 08:50:18;;;;;;;2.30;1.45;;;15.90;95.70;;;;;;5211357;28;20550;-77
2022/03/24 08:52:52;;;;;;;1.13;1.10;;;16.00;95.90;;;;;;5187444;28;20036;-77
2022/03/24 08:55:29;;;;;;;5.10;1.92;;;16.20;95.90;;;;;;5181260;28;20022;-77
2022/03/24 08:58:04;;;;;;;1.23;1.13;;;16.20;95.70;;;;;;5194417;28;20042;-77
2022/03/24 09:00:36;;;;;;;1.20;1.20;;;16.20;95.30;;;;;;5204249;28;20617;-75
2022/03/24 09:03:11;;;;;;;2.22;1.45;;;16.10;95.40;;;;;;5181739;28;20045;-76
2022/03/24 09:05:43;;;;;;;1.13;1.13;;;16.40;95.90;;;;;;5168947;28;20231;-76
2022/03/24 09:08:14;;;;;;;0.60;0.47;;;16.70;95.20;;;;;;5197175;28;20037;-77
2022/03/24 09:10:50;;;;;;;3.03;0.80;;;16.90;95.20;;;;;;5186237;28;20025;-77
2022/03/24 09:13:23;;;;;;;0.88;0.85;;;16.90;95.30;;;;;;5197335;28;20035;-78
2022/03/24 09:15:54;;;;;;;0.73;0.73;;;17.00;95.00;;;;;;5197295;28;20029;-76
2022/03/24 09:18:26;;;;;;;1.73;1.42;;;17.30;94.90;;;;;;5195887;28;20037;-76
2022/03/24 09:21:09;;;;;;;2.00;1.83;;;16.80;94.30;;;;;;5196570;28;20032;-76
2022/03/24 09:23:41;;;;;;;0.82;0.82;;;16.80;94.20;;;;;;5195740;28;20043;-77
2022/03/24 09:26:20;;;;;;;1.50;1.42;;;16.70;94.10;;;;;;5203320;28;20024;-77
2022/03/24 09:28:52;;;;;;;1.55;1.50;;;16.90;94.40;;;;;;5179404;28;20033;-75
2022/03/24 09:31:29;;;;;;;0.50;0.50;;;17.00;94.20;;;;;;5179350;28;20040;-76
2022/03/24 09:34:01;;;;;;;1.52;1.38;;;17.10;94.50;;;;;;5211357;28;20016;-75
2022/03/24 09:36:37;;;;;;;1.38;1.27;;;17.30;93.90;;;;;;5197703;28;20028;-76
2022/03/24 09:39:11;;;;;;;0.65;0.65;;;17.40;94.00;;;;;;5203421;28;20014;-77
2022/03/24 09:41:49;;;;;;;1.15;1.15;;;17.30;93.60;;;;;;5201183;28;20041;-77
2022/03/24 09:44:27;;;;;;;0.85;0.85;;;17.20;93.60;;;;;;5217158;28;20032;-74
2022/03/24 09:46:59;;;;;;;0.82;0.82;;;17.60;94.10;;;;;;5194624;28;20037;-77
2022/03/24 09:49:31;;;;;;;1.48;1.33;;;17.50;94.10;;;;;;5190368;28;20021;-76
2022/03/24 09:52:12;;;;;;;1.50;1.40;;;18.00;93.40;;;;;;5185968;28;20094;-76
2022/03/24 09:54:49;;;;;;;1.58;1.48;;;17.90;92.90;;;;;;5170416;28;20041;-76
2022/03/24 09:57:24;;;;;;;2.45;1.60;;;17.70;93.20;;;;;;5213697;28;20021;-76
2022/03/24 10:00:08;;;;;;;1.58;1.48;;;17.60;93.10;;;;;;5201971;28;20064;-78
2022/03/24 10:03:00;;;;;;;1.77;1.67;;;18.00;93.70;;;;;;5189874;28;20072;-76
2022/03/24 10:05:54;;;;;;;0.90;0.90;;;18.30;93.00;;;;;;5197318;28;20038;-76
2022/03/24 10:08:28;;;;;;;1.50;1.40;;;18.80;92.90;;;;;;5176685;28;20072;-79
2022/03/24 10:11:08;;;;;;;1.27;1.27;;;18.70;92.20;;;;;;5198231;28;20045;-76
2022/03/24 10:13:54;;;;;;;2.40;2.13;;;18.50;92.00;;;;;;5183046;28;20033;-77
2022/03/24 10:16:39;;;;;;;1.58;1.48;;;18.70;91.90;;;;;;5191931;28;20029;-77
2022/03/24 10:19:17;;;;;;;;;;;19.00;91.90;;;;;;5184799;28;21237;-75
2022/03/24 10:21:52;;;;;;;1.30;1.30;;;19.50;92.00;;;;;;5201672;28;20152;-76
2022/03/24 10:24:26;;;;;;;1.65;1.55;;;19.20;91.20;;;;;;5197106;28;20037;-76
2022/03/24 10:27:04;;;;;;;0.73;0.73;;;19.20;91.60;;;;;;5200168;28;20041;-76
2022/03/24 10:29:41;;;;;;;1.88;1.77;;;19.60;91.50;;;;;;5196193;28;20037;-78
2022/03/24 10:32:18;;;;;;;1.27;1.17;;;20.50;90.40;;;;;;5192255;28;20368;-77
2022/03/24 10:34:58;;;;;;;2.78;2.55;;;20.80;88.70;;;;;;5182080;28;20029;-76
2022/03/24 10:37:31;;;;;;;0.90;0.88;;;20.80;89.50;;;;;;5196863;28;20029;-77
2022/03/24 10:40:10;;;;;;;1.85;1.75;;;21.00;89.60;;;;;;5202476;28;20048;-77
2022/03/24 10:42:47;;;;;;;3.47;2.33;;;21.80;90.50;;;;;;5187992;28;20060;-76
2022/03/24 10:45:25;;;;;;;2.80;2.60;;;20.90;89.00;;;;;;5223101;28;20020;-76
2022/03/24 10:48:02;;;;;;;1.63;1.52;;;21.20;88.60;;;;;;5204958;28;20033;-77
2022/03/24 10:50:44;;;;;;;2.03;1.92;;;21.10;88.30;;;;;;5196798;28;20297;-76
2022/03/24 10:53:19;;;;;;;1.95;1.83;;;21.10;87.30;;;;;;5190343;28;20227;-75
2022/03/24 10:56:11;;;;;;;2.45;2.35;;;20.70;87.10;;;;;;5203174;28;20040;-76
2022/03/24 10:59:00;;;;;;;1.77;1.67;;;21.60;85.90;;;;;;5197619;28;20037;-77
2022/03/24 11:01:32;;;;;;;4.22;2.97;;;21.60;85.80;;;;;;5205530;28;20037;-77
2022/03/24 11:04:09;;;;;;;0.63;0.63;;;21.90;85.40;;;;;;5191399;28;20366;-76
2022/03/24 11:06:54;;;;;;;0.73;0.73;;;21.90;83.80;;;;;;5191202;28;20307;-77
2022/03/24 11:09:31;;;;;;;;;;;21.80;83.90;;;;;;5214996;28;20268;-76
2022/03/24 11:12:28;;;;;;;1.92;1.83;;;21.80;82.50;;;;;;5181952;28;19919;-76
2022/03/24 11:15:07;;;;;;;1.40;1.30;;;22.90;80.60;;;;;;5204294;28;20036;-77
2022/03/24 11:17:42;;;;;;;2.10;2.00;;;23.50;80.70;;;;;;5212216;28;20037;-76
2022/03/24 11:20:27;;;;;;;1.77;1.67;;;22.50;81.40;;;;;;5205751;28;20036;-76
2022/03/24 11:23:13;;;;;;;1.75;1.65;;;23.10;79.40;;;;;;5182278;28;20030;-78
2022/03/24 11:25:47;;;;;;;1.23;1.20;;;23.20;78.20;;;;;;5175049;28;20043;-76
2022/03/24 11:28:22;;;;;;;;;;;23.20;79.10;;;;;;5176684;28;20027;-76
2022/03/24 11:31:00;;;;;;;2.40;2.20;;;24.00;78.00;;;;;;5181418;28;19916;-77
2022/03/24 11:33:50;;;;;;;1.75;1.65;;;24.30;78.30;;;;;;5201379;28;20276;-78
2022/03/24 11:36:25;;;;;;;2.03;1.92;;;23.60;78.90;;;;;;5201526;28;20037;-76
2022/03/24 11:39:09;;;;;;;1.83;1.73;;;24.00;76.50;;;;;;5211136;28;20051;-76
2022/03/24 11:41:55;;;;;;;1.17;1.17;;;23.10;77.60;;;;;;5187211;28;20278;-77
2022/03/24 11:44:48;;;;;;;2.30;2.15;;;23.20;77.80;;;;;;5181761;28;20033;-75
2022/03/24 11:47:24;;;;;;;2.22;2.13;;;23.40;76.30;;;;;;5180725;28;20047;-77
2022/03/24 11:50:10;;;;;;;2.08;1.92;;;24.40;78.30;;;;;;5166231;28;20454;-76
2022/03/24 11:52:41;;;;;;;2.28;2.08;;;25.10;73.40;;;;;;5212679;28;20380;-76
2022/03/24 11:55:17;;;;;;;1.63;1.48;;;24.80;74.40;;;;;;5213612;28;20037;-76
2022/03/24 11:58:04;;;;;;;0.73;0.73;;;24.40;75.40;;;;;;5193298;28;20047;-75
2022/03/24 12:00:39;;;;;;;2.35;2.22;;;23.70;74.50;;;;;;5197608;28;20040;-77
2022/03/24 12:03:48;;;;;;;1.83;1.50;;;23.20;74.40;;;;;;5212977;28;20104;-76
2022/03/24 12:06:45;;;;;;;1.80;1.70;;;22.80;73.30;;;;;;5169367;28;20053;-75
2022/03/24 12:09:21;;;;;;;2.83;1.63;;;23.20;75.60;;;;;;5172457;28;20072;-78
2022/03/24 12:12:03;;;;;;;1.42;1.38;;;24.20;73.80;;;;;;5207982;28;20037;-76
2022/03/24 12:14:35;;;;;;;2.03;1.92;;;24.20;74.70;;;;;;5196445;28;20214;-77
2022/03/24 12:17:22;;;;;;;2.53;2.28;;;24.10;71.70;;;;;;5203142;28;20041;-75
2022/03/24 12:20:03;;;;;;;1.33;1.33;;;24.70;73.00;;;;;;5201492;28;20226;-76
2022/03/24 12:22:39;;;;;;;1.85;1.52;;;24.80;72.80;;;;;;5198184;28;20135;-75
2022/03/24 12:25:13;;;;;;;2.70;2.40;;;26.10;72.40;;;;;;5201191;28;20037;-76
2022/03/24 12:28:07;;;;;;;1.05;1.05;;;25.50;72.20;;;;;;5201603;28;20455;-76
2022/03/24 12:30:57;;;;;;;1.95;1.85;;;24.80;75.10;;;;;;5191519;28;20024;-76
2022/03/24 12:33:35;;;;;;;1.77;1.67;;;24.00;73.80;;;;;;5185402;28;20021;-77
2022/03/24 12:36:18;;;;;;;0.90;0.90;;;24.40;72.80;;;;;;5203772;28;20021;-75
2022/03/24 12:38:59;;;;;;;2.15;1.98;;;24.90;71.50;;;;;;5206204;28;20564;-76
2022/03/24 12:41:32;;;;;;;1.30;1.23;;;25.50;70.80;;;;;;5217997;28;20024;-76
2022/03/24 12:44:08;;;;;;;1.50;1.00;;;25.40;70.60;;;;;;5187203;28;20350;-75
2022/03/24 12:46:50;;;;;;;1.80;1.70;;;24.20;71.90;;;;;;5185821;28;20048;-75
2022/03/24 12:49:32;;;;;;;3.47;3.17;;;25.00;72.30;;;;;;5184311;28;20043;-78
2022/03/24 12:52:15;;;;;;;1.63;1.58;;;25.30;72.00;;;;;;5205532;28;20039;-76
2022/03/24 12:54:53;;;;;;;1.13;1.13;;;24.80;71.90;;;;;;5198546;28;20037;-75
2022/03/24 12:57:36;;;;;;;1.55;1.50;;;25.30;72.50;;;;;;5185521;28;20033;-77
2022/03/24 13:00:20;;;;;;;1.50;1.40;;;25.50;71.70;;;;;;5227149;28;20039;-78
2022/03/24 13:02:52;;;;;;;2.58;2.25;;;23.70;74.00;;;;;;5211753;28;20065;-78
2022/03/24 13:05:32;;;;;;;3.08;2.88;;;24.90;72.80;;;;;;5167311;28;20092;-76
2022/03/24 13:08:09;;;;;;;1.25;1.23;;;24.70;71.60;;;;;;5185362;28;20037;-77
2022/03/24 13:11:13;;;;;;;2.20;1.98;;;24.90;72.00;;;;;;5190719;28;20434;-75
2022/03/24 13:13:55;;;;;;;2.25;2.15;;;24.40;72.90;;;;;;5141949;28;20093;-78
2022/03/24 13:16:27;;;;;;;1.98;1.88;;;23.90;72.70;;;;;;5139176;28;20046;-77
2022/03/24 13:18:58;;;;;;;2.40;1.83;;;24.20;71.90;;;;;;5130141;28;20054;-76
2022/03/24 13:21:30;;;;;;;1.65;1.55;;;24.10;72.70;;;;;;5142198;28;20049;-78
2022/03/24 13:24:07;;;;;;;1.08;1.08;;;24.00;73.30;;;;;;5159024;28;20413;-77
2022/03/24 13:26:59;;;;;;;2.17;1.33;;;24.70;72.20;;;;;;5143118;28;20251;-75
2022/03/24 13:29:45;;;;;;;1.20;1.17;;;25.10;72.30;;;;;;5159765;28;20406;-76
2022/03/24 13:32:23;;;;;;;3.67;2.13;;;27.20;70.90;;;;;;5178673;28;20044;-76
2022/03/24 13:35:11;;;;;;;2.67;2.47;;;27.80;69.80;;;;;;5162545;28;20034;-75
2022/03/24 13:37:51;;;;;;;1.88;1.77;;;28.00;68.20;;;;;;5155599;28;20058;-76
2022/03/24 13:40:31;;;;;;;3.33;2.25;;;26.80;69.90;;;;;;5194346;28;20041;-76
2022/03/24 13:43:03;;;;;;;2.20;1.67;;;26.00;69.70;;;;;;5142185;28;20429;-76
2022/03/24 13:45:41;;;;;;;1.83;1.73;;;25.60;69.30;;;;;;5163156;28;20042;-77